createdAt,value
2019-03-30T00:00:08.990Z,88.71
2019-03-30T00:01:08.978Z,88.51
2019-03-30T00:02:08.969Z,88.96
2019-03-30T00:03:08.969Z,88.96
2019-03-30T00:04:08.947Z,89.07
2019-03-30T00:05:08.949Z,89.38
2019-03-30T00:06:08.925Z,89.38
2019-03-30T00:07:08.914Z,89.17
2019-03-30T00:08:08.911Z,88.96
2019-03-30T00:09:08.897Z,89.17
2019-03-30T00:10:09.451Z,89.28
2019-03-30T00:11:08.899Z,89.17
2019-03-30T00:12:08.858Z,89.34
2019-03-30T00:13:08.859Z,89.34
2019-03-30T00:14:08.878Z,89.03
2019-03-30T00:15:08.836Z,89.44
2019-03-30T00:16:08.816Z,88.96
2019-03-30T00:17:08.805Z,89.28
2019-03-30T00:18:08.802Z,89.17
2019-03-30T00:19:08.786Z,89.28
2019-03-30T00:20:08.770Z,88.96
2019-03-30T00:21:08.759Z,89.28
2019-03-30T00:22:08.750Z,89.28
2019-03-30T00:23:08.746Z,89.07
2019-03-30T00:24:08.729Z,88.45
2019-03-30T00:25:08.717Z,88.96
2019-03-30T00:26:08.705Z,88.96
2019-03-30T00:27:08.693Z,88.79
2019-03-30T00:28:08.694Z,88.90
2019-03-30T00:29:08.676Z,89.00
2019-03-30T00:30:08.665Z,88.69
2019-03-30T00:31:08.652Z,89.00
2019-03-30T00:32:08.640Z,89.11
2019-03-30T00:33:08.639Z,89.11
2019-03-30T00:34:08.635Z,89.00
2019-03-30T00:35:08.608Z,88.69
2019-03-30T00:36:08.596Z,88.90
2019-03-30T00:37:08.587Z,88.59
2019-03-30T00:38:08.590Z,88.79
2019-03-30T00:39:08.569Z,88.90
2019-03-30T00:40:08.553Z,89.11
2019-03-30T00:41:08.543Z,89.31
2019-03-30T00:42:08.531Z,89.31
2019-03-30T00:43:08.546Z,89.31
2019-03-30T00:44:08.509Z,89.25
2019-03-30T00:45:08.500Z,89.04
2019-03-30T00:46:08.489Z,88.94
2019-03-30T00:47:08.484Z,88.73
2019-03-30T00:48:08.465Z,88.84
2019-03-30T00:49:08.470Z,88.42
2019-03-30T00:50:08.443Z,89.04
2019-03-30T00:51:08.438Z,89.15
2019-03-30T00:52:08.427Z,89.15
2019-03-30T00:53:08.409Z,88.42
2019-03-30T00:54:08.412Z,88.73
2019-03-30T00:55:08.390Z,88.57
2019-03-30T00:56:08.378Z,89.36
2019-03-30T00:57:08.372Z,88.63
2019-03-30T00:58:08.357Z,88.63
2019-03-30T00:59:08.355Z,88.78
2019-03-30T01:00:08.353Z,88.84
2019-03-30T01:01:08.327Z,88.11
2019-03-30T01:02:08.318Z,88.26
2019-03-30T01:03:08.302Z,88.32
2019-03-30T01:04:08.300Z,88.11
2019-03-30T01:05:08.280Z,88.36
2019-03-30T01:06:08.271Z,88.88
2019-03-30T01:07:08.260Z,88.67
2019-03-30T01:08:08.248Z,88.53
2019-03-30T01:09:08.254Z,89.09
2019-03-30T01:10:08.225Z,89.15
2019-03-30T01:11:08.215Z,89.09
2019-03-30T01:12:08.205Z,89.04
2019-03-30T01:13:08.195Z,88.98
2019-03-30T01:14:08.194Z,88.57
2019-03-30T01:15:08.171Z,88.88
2019-03-30T01:16:08.160Z,88.88
2019-03-30T01:17:08.152Z,88.88
2019-03-30T01:18:08.143Z,88.88
2019-03-30T01:19:08.138Z,88.88
2019-03-30T01:20:08.121Z,88.26
2019-03-30T01:21:08.108Z,88.36
2019-03-30T01:22:08.095Z,88.46
2019-03-30T01:23:08.084Z,88.67
2019-03-30T01:24:08.088Z,88.36
2019-03-30T01:25:08.072Z,88.67
2019-03-30T01:26:08.061Z,88.78
2019-03-30T01:27:08.042Z,88.36
2019-03-30T01:28:08.956Z,88.88
2019-03-30T01:29:08.027Z,88.88
2019-03-30T01:30:22.146Z,88.78
2019-03-30T01:31:08.997Z,88.67
2019-03-30T01:32:07.988Z,88.36
2019-03-30T01:33:07.976Z,87.63
2019-03-30T01:34:07.976Z,87.84
2019-03-30T01:35:08.052Z,87.63
2019-03-30T01:36:07.944Z,87.74
2019-03-30T01:37:07.934Z,87.74
2019-03-30T01:38:07.920Z,87.84
2019-03-30T01:39:07.919Z,87.84
2019-03-30T01:40:07.899Z,88.36
2019-03-30T01:41:07.886Z,88.36
2019-03-30T01:42:07.877Z,88.26
2019-03-30T01:43:07.873Z,88.57
2019-03-30T01:44:07.863Z,88.57
2019-03-30T01:45:07.843Z,88.88
2019-03-30T01:46:07.833Z,88.88
2019-03-30T01:47:07.823Z,88.36
2019-03-30T01:48:07.813Z,88.98
2019-03-30T01:49:07.828Z,88.46
2019-03-30T01:50:17.099Z,88.46
2019-03-30T01:51:08.778Z,88.36
2019-03-30T01:52:07.768Z,88.61
2019-03-30T01:53:07.760Z,88.57
2019-03-30T01:54:07.745Z,88.36
2019-03-30T01:55:07.747Z,88.36
2019-03-30T01:56:07.725Z,88.71
2019-03-30T01:57:07.713Z,88.67
2019-03-30T01:58:07.702Z,88.36
2019-03-30T01:59:07.691Z,88.57
2019-03-30T02:00:07.691Z,88.40
2019-03-30T02:01:07.670Z,88.67
2019-03-30T02:02:07.657Z,88.61
2019-03-30T02:03:07.649Z,88.40
2019-03-30T02:04:07.640Z,88.71
2019-03-30T02:05:07.643Z,87.53
2019-03-30T02:06:07.618Z,87.68
2019-03-30T02:07:07.610Z,88.09
2019-03-30T02:08:07.593Z,87.68
2019-03-30T02:09:07.583Z,87.68
2019-03-30T02:10:07.587Z,88.13
2019-03-30T02:11:07.562Z,87.71
2019-03-30T02:12:07.554Z,87.88
2019-03-30T02:13:07.539Z,87.88
2019-03-30T02:14:07.530Z,87.78
2019-03-30T02:15:07.529Z,88.09
2019-03-30T02:16:07.514Z,87.88
2019-03-30T02:17:07.580Z,87.37
2019-03-30T02:18:07.486Z,88.44
2019-03-30T02:19:07.472Z,88.85
2019-03-30T02:20:07.471Z,88.44
2019-03-30T02:21:07.451Z,88.85
2019-03-30T02:22:07.442Z,88.13
2019-03-30T02:23:07.433Z,88.13
2019-03-30T02:24:07.420Z,88.54
2019-03-30T02:25:07.421Z,87.92
2019-03-30T02:26:07.401Z,88.34
2019-03-30T02:27:07.387Z,88.85
2019-03-30T02:28:07.412Z,88.85
2019-03-30T02:29:07.367Z,88.28
2019-03-30T02:30:07.395Z,89.27
2019-03-30T02:31:07.344Z,89.31
2019-03-30T02:32:07.334Z,89.52
2019-03-30T02:33:07.332Z,89.42
2019-03-30T02:34:07.313Z,89.62
2019-03-30T02:35:07.311Z,89.83
2019-03-30T02:36:07.300Z,89.52
2019-03-30T02:37:07.292Z,89.94
2019-03-30T02:38:07.271Z,89.21
2019-03-30T02:39:07.261Z,89.21
2019-03-30T02:40:07.258Z,89.11
2019-03-30T02:41:07.248Z,88.90
2019-03-30T02:42:07.226Z,89.21
2019-03-30T02:43:07.215Z,89.11
2019-03-30T02:44:07.208Z,89.21
2019-03-30T02:45:07.210Z,89.42
2019-03-30T02:46:07.294Z,89.31
2019-03-30T02:47:07.172Z,88.90
2019-03-30T02:48:07.161Z,89.00
2019-03-30T02:49:07.162Z,89.11
2019-03-30T02:50:07.151Z,88.38
2019-03-30T02:51:07.133Z,88.59
2019-03-30T02:52:07.121Z,88.79
2019-03-30T02:53:07.110Z,88.28
2019-03-30T02:54:07.098Z,89.11
2019-03-30T02:55:07.096Z,89.11
2019-03-30T02:56:07.076Z,88.90
2019-03-30T02:57:07.066Z,89.11
2019-03-30T02:58:07.058Z,89.00
2019-03-30T02:59:07.047Z,89.00
2019-03-30T03:00:07.222Z,88.69
2019-03-30T03:01:07.027Z,88.59
2019-03-30T03:02:07.024Z,88.69
2019-03-30T03:03:07.000Z,88.90
2019-03-30T03:04:06.994Z,89.31
2019-03-30T03:05:06.979Z,89.11
2019-03-30T03:06:06.984Z,89.31
2019-03-30T03:07:06.957Z,89.00
2019-03-30T03:08:06.948Z,88.79
2019-03-30T03:09:06.936Z,89.00
2019-03-30T03:10:06.932Z,88.59
2019-03-30T03:11:06.924Z,89.00
2019-03-30T03:12:06.906Z,89.52
2019-03-30T03:13:06.908Z,89.21
2019-03-30T03:14:06.886Z,89.31
2019-03-30T03:15:06.876Z,89.67
2019-03-30T03:16:06.874Z,89.98
2019-03-30T03:17:06.851Z,89.42
2019-03-30T03:18:06.844Z,88.79
2019-03-30T03:19:06.832Z,89.00
2019-03-30T03:20:06.832Z,89.00
2019-03-30T03:21:08.567Z,88.79
2019-03-30T03:22:06.801Z,88.84
2019-03-30T03:23:06.802Z,88.31
2019-03-30T03:24:06.779Z,89.04
2019-03-30T03:25:06.771Z,88.84
2019-03-30T03:26:06.763Z,88.94
2019-03-30T03:27:06.745Z,88.94
2019-03-30T03:28:06.733Z,88.31
2019-03-30T03:29:06.721Z,88.84
2019-03-30T03:30:06.715Z,89.15
2019-03-30T03:31:06.745Z,88.62
2019-03-30T03:32:06.692Z,88.52
2019-03-30T03:33:06.687Z,88.52
2019-03-30T03:34:06.671Z,89.25
2019-03-30T03:35:06.667Z,88.73
2019-03-30T03:36:06.661Z,89.15
2019-03-30T03:37:06.639Z,89.04
2019-03-30T03:38:06.626Z,88.94
2019-03-30T03:39:06.620Z,89.67
2019-03-30T03:40:06.609Z,90.29
2019-03-30T03:41:06.604Z,89.46
2019-03-30T03:42:06.586Z,90.29
2019-03-30T03:43:06.583Z,89.87
2019-03-30T03:44:06.565Z,89.98
2019-03-30T03:45:06.557Z,90.29
2019-03-30T03:46:06.552Z,89.56
2019-03-30T03:47:06.530Z,89.46
2019-03-30T03:48:06.523Z,88.94
2019-03-30T03:49:06.519Z,89.04
2019-03-30T03:50:06.501Z,89.04
2019-03-30T03:51:24.503Z,88.77
2019-03-30T03:52:07.481Z,89.60
2019-03-30T03:53:06.477Z,89.77
2019-03-30T03:54:06.469Z,89.50
2019-03-30T03:55:06.449Z,89.39
2019-03-30T03:56:06.658Z,89.15
2019-03-30T03:57:06.432Z,89.15
2019-03-30T03:58:06.417Z,88.94
2019-03-30T03:59:06.409Z,89.08
2019-03-30T04:00:06.396Z,88.98
2019-03-30T04:01:06.395Z,89.39
2019-03-30T04:02:06.372Z,90.44
2019-03-30T04:03:06.363Z,90.95
2019-03-30T04:04:06.355Z,91.37
2019-03-30T04:05:06.343Z,90.95
2019-03-30T04:06:06.348Z,90.91
2019-03-30T04:07:06.323Z,90.95
2019-03-30T04:08:06.310Z,90.44
2019-03-30T04:09:06.297Z,90.02
2019-03-30T04:10:06.295Z,90.23
2019-03-30T04:11:06.287Z,91.64
2019-03-30T04:12:06.267Z,92.20
2019-03-30T04:13:07.165Z,92.41
2019-03-30T04:14:06.248Z,92.57
2019-03-30T04:15:06.233Z,90.95
2019-03-30T04:16:06.225Z,90.85
2019-03-30T04:17:06.220Z,90.64
2019-03-30T04:18:06.202Z,90.02
2019-03-30T04:19:06.206Z,90.33
2019-03-30T04:20:06.185Z,89.50
2019-03-30T04:21:06.170Z,89.81
2019-03-30T04:22:06.177Z,89.39
2019-03-30T04:23:06.151Z,89.43
2019-03-30T04:24:06.138Z,89.60
2019-03-30T04:25:06.128Z,89.64
2019-03-30T04:26:06.124Z,89.64
2019-03-30T04:27:06.116Z,89.75
2019-03-30T04:28:06.110Z,90.26
2019-03-30T04:29:06.089Z,90.37
2019-03-30T04:30:06.073Z,90.26
2019-03-30T04:31:06.063Z,91.00
2019-03-30T04:32:06.064Z,91.72
2019-03-30T04:33:06.045Z,91.52
2019-03-30T04:34:06.033Z,91.00
2019-03-30T04:35:06.021Z,90.89
2019-03-30T04:36:06.015Z,90.75
2019-03-30T04:37:06.082Z,90.47
2019-03-30T04:38:05.989Z,90.26
2019-03-30T04:39:05.979Z,89.85
2019-03-30T04:40:05.974Z,90.02
2019-03-30T04:41:05.958Z,90.16
2019-03-30T04:42:05.956Z,90.26
2019-03-30T04:43:05.938Z,89.85
2019-03-30T04:44:05.925Z,90.58
2019-03-30T04:45:05.915Z,90.89
2019-03-30T04:46:05.905Z,91.10
2019-03-30T04:47:05.902Z,91.10
2019-03-30T04:48:05.883Z,90.47
2019-03-30T04:49:05.882Z,90.69
2019-03-30T04:50:05.923Z,90.16
2019-03-30T04:51:05.851Z,89.70
2019-03-30T04:52:05.851Z,90.26
2019-03-30T04:53:05.829Z,90.33
2019-03-30T04:54:05.820Z,89.43
2019-03-30T04:55:05.809Z,89.60
2019-03-30T04:56:05.797Z,89.39
2019-03-30T04:57:05.797Z,89.39
2019-03-30T04:58:09.056Z,89.29
2019-03-30T04:59:05.768Z,89.08
2019-03-30T05:00:05.756Z,89.29
2019-03-30T05:01:05.748Z,88.67
2019-03-30T05:02:05.745Z,88.67
2019-03-30T05:03:05.731Z,89.08
2019-03-30T05:04:05.713Z,89.25
2019-03-30T05:05:05.702Z,89.81
2019-03-30T05:06:05.693Z,90.44
2019-03-30T05:07:05.690Z,90.44
2019-03-30T05:08:05.670Z,91.16
2019-03-30T05:09:05.661Z,91.37
2019-03-30T05:10:05.652Z,91.89
2019-03-30T05:11:05.643Z,91.47
2019-03-30T05:12:05.650Z,90.85
2019-03-30T05:13:05.627Z,90.75
2019-03-30T05:14:05.608Z,89.77
2019-03-30T05:15:05.597Z,89.67
2019-03-30T05:16:05.592Z,89.56
2019-03-30T05:17:05.589Z,89.04
2019-03-30T05:18:05.567Z,88.84
2019-03-30T05:19:05.552Z,88.42
2019-03-30T05:20:05.542Z,88.62
2019-03-30T05:21:05.534Z,88.84
2019-03-30T05:22:11.965Z,88.59
2019-03-30T05:23:06.512Z,88.48
2019-03-30T05:24:05.500Z,88.90
2019-03-30T05:25:05.489Z,89.31
2019-03-30T05:26:05.479Z,90.56
2019-03-30T05:27:05.476Z,90.25
2019-03-30T05:28:05.459Z,89.73
2019-03-30T05:29:05.445Z,90.00
2019-03-30T05:30:05.443Z,89.79
2019-03-30T05:31:05.433Z,88.75
2019-03-30T05:32:05.446Z,88.96
2019-03-30T05:33:06.435Z,87.99
2019-03-30T05:34:05.394Z,87.88
2019-03-30T05:35:05.384Z,87.51
2019-03-30T05:36:05.372Z,86.95
2019-03-30T05:37:05.360Z,86.95
2019-03-30T05:38:05.359Z,87.05
2019-03-30T05:39:05.347Z,87.37
2019-03-30T05:40:05.327Z,87.99
2019-03-30T05:41:05.316Z,88.13
2019-03-30T05:42:05.309Z,88.51
2019-03-30T05:43:05.303Z,88.09
2019-03-30T05:44:05.283Z,87.78
2019-03-30T05:45:05.272Z,87.74
2019-03-30T05:46:05.270Z,87.32
2019-03-30T05:47:05.250Z,87.43
2019-03-30T05:48:05.252Z,86.91
2019-03-30T05:49:05.240Z,86.55
2019-03-30T05:50:05.218Z,86.25
2019-03-30T05:51:05.211Z,86.76
2019-03-30T05:52:05.196Z,87.59
2019-03-30T05:53:05.197Z,87.90
2019-03-30T05:54:05.175Z,87.76
2019-03-30T05:55:05.164Z,87.66
2019-03-30T05:56:05.153Z,87.35
2019-03-30T05:57:05.148Z,86.89
2019-03-30T05:58:05.141Z,85.92
2019-03-30T05:59:05.123Z,86.02
2019-03-30T06:00:05.112Z,85.82
2019-03-30T06:01:05.099Z,85.57
2019-03-30T06:02:05.090Z,86.09
2019-03-30T06:03:05.090Z,85.99
2019-03-30T06:04:05.067Z,85.84
2019-03-30T06:05:05.060Z,84.77
2019-03-30T06:06:05.044Z,84.97
2019-03-30T06:07:05.033Z,84.83
2019-03-30T06:08:05.032Z,83.97
2019-03-30T06:09:05.012Z,83.10
2019-03-30T06:10:05.002Z,82.28
2019-03-30T06:11:04.990Z,80.76
2019-03-30T06:12:04.982Z,80.51
2019-03-30T06:13:04.978Z,79.86
2019-03-30T06:14:04.958Z,79.16
2019-03-30T06:15:04.951Z,77.24
2019-03-30T06:16:04.936Z,75.73
2019-03-30T06:17:04.925Z,73.19
2019-03-30T06:18:04.924Z,72.72
2019-03-30T06:19:04.905Z,72.07
2019-03-30T06:20:04.893Z,70.09
2019-03-30T06:21:04.881Z,70.29
2019-03-30T06:22:04.873Z,69.61
2019-03-30T06:23:04.875Z,68.52
2019-03-30T06:24:04.850Z,67.65
2019-03-30T06:25:04.852Z,65.54
2019-03-30T06:26:04.827Z,64.02
2019-03-30T06:27:04.815Z,62.56
2019-03-30T06:28:04.819Z,62.51
2019-03-30T06:29:04.794Z,60.75
2019-03-30T06:30:04.782Z,60.21
2019-03-30T06:31:04.772Z,60.79
2019-03-30T06:32:04.760Z,60.43
2019-03-30T06:33:04.760Z,59.26
2019-03-30T06:34:04.748Z,59.66
2019-03-30T06:35:04.728Z,58.82
2019-03-30T06:36:04.718Z,58.29
2019-03-30T06:37:04.706Z,57.86
2019-03-30T06:38:04.715Z,57.93
2019-03-30T06:39:04.692Z,56.89
2019-03-30T06:40:04.675Z,56.05
2019-03-30T06:41:04.669Z,55.62
2019-03-30T06:42:04.653Z,55.73
2019-03-30T06:43:07.521Z,55.09
2019-03-30T06:44:04.647Z,54.46
2019-03-30T06:45:04.629Z,53.85
2019-03-30T06:46:04.651Z,54.46
2019-03-30T06:47:04.622Z,54.23
2019-03-30T06:48:04.592Z,52.82
2019-03-30T06:49:04.590Z,53.30
2019-03-30T06:50:04.568Z,52.36
2019-03-30T06:51:04.560Z,52.14
2019-03-30T06:52:04.545Z,52.31
2019-03-30T06:53:04.560Z,51.68
2019-03-30T06:54:04.535Z,50.78
2019-03-30T06:55:05.508Z,50.45
2019-03-30T06:56:04.508Z,50.76
2019-03-30T06:57:04.496Z,48.61
2019-03-30T06:58:04.485Z,49.65
2019-03-30T06:59:04.482Z,49.93
2019-03-30T07:00:04.462Z,49.40
2019-03-30T07:01:04.450Z,49.88
2019-03-30T07:02:04.444Z,49.37
2019-03-30T07:03:04.434Z,48.87
2019-03-30T07:04:04.430Z,49.27
2019-03-30T07:05:04.414Z,48.87
2019-03-30T07:06:04.399Z,48.02
2019-03-30T07:07:04.390Z,47.19
2019-03-30T07:08:04.376Z,47.82
2019-03-30T07:09:04.374Z,47.42
2019-03-30T07:10:04.356Z,47.72
2019-03-30T07:11:04.344Z,47.72
2019-03-30T07:12:04.345Z,48.83
2019-03-30T07:13:04.324Z,48.83
2019-03-30T07:14:04.326Z,49.21
2019-03-30T07:15:04.305Z,48.72
2019-03-30T07:16:04.337Z,48.75
2019-03-30T07:17:04.285Z,48.25
2019-03-30T07:18:04.271Z,49.18
2019-03-30T07:19:04.305Z,50.65
2019-03-30T07:20:04.257Z,50.57
2019-03-30T07:21:04.246Z,53.32
2019-03-30T07:22:04.233Z,51.25
2019-03-30T07:23:11.742Z,53.42
2019-03-30T07:24:05.239Z,53.63
2019-03-30T07:25:04.201Z,54.31
2019-03-30T07:26:04.186Z,52.56
2019-03-30T07:27:04.177Z,54.08
2019-03-30T07:28:04.191Z,52.59
2019-03-30T07:29:04.168Z,54.28
2019-03-30T07:30:04.170Z,55.09
2019-03-30T07:31:04.164Z,53.90
2019-03-30T07:32:04.142Z,53.70
2019-03-30T07:33:04.116Z,54.53
2019-03-30T07:34:04.103Z,54.66
2019-03-30T07:35:04.106Z,55.82
2019-03-30T07:36:04.081Z,55.40
2019-03-30T07:37:04.068Z,56.33
2019-03-30T07:38:04.063Z,56.02
2019-03-30T07:39:04.052Z,55.52
2019-03-30T07:40:04.045Z,56.43
2019-03-30T07:41:04.027Z,55.73
2019-03-30T07:42:04.016Z,55.82
2019-03-30T07:43:04.009Z,56.81
2019-03-30T07:44:03.998Z,57.09
2019-03-30T07:45:03.999Z,55.69
2019-03-30T07:46:03.986Z,54.66
2019-03-30T07:47:03.968Z,54.79
2019-03-30T07:48:03.952Z,55.09
2019-03-30T07:49:03.962Z,56.15
2019-03-30T07:50:03.951Z,58.71
2019-03-30T07:51:03.923Z,57.37
2019-03-30T07:52:03.909Z,58.78
2019-03-30T07:53:04.251Z,58.41
2019-03-30T07:54:11.779Z,59.09
2019-03-30T07:55:03.886Z,59.09
2019-03-30T07:56:08.483Z,57.24
2019-03-30T07:57:16.859Z,56.20
2019-03-30T07:58:04.924Z,54.89
2019-03-30T07:59:03.848Z,56.10
2019-03-30T08:00:03.828Z,56.51
2019-03-30T08:01:03.811Z,57.17
2019-03-30T08:02:03.800Z,57.17
2019-03-30T08:03:03.789Z,59.01
2019-03-30T08:04:03.780Z,59.14
2019-03-30T08:05:03.778Z,57.83
2019-03-30T08:06:11.077Z,57.60
2019-03-30T08:07:03.750Z,59.52
2019-03-30T08:08:03.824Z,58.44
2019-03-30T08:09:03.778Z,58.74
2019-03-30T08:10:03.735Z,58.36
2019-03-30T08:11:03.700Z,59.55
2019-03-30T08:12:03.695Z,58.94
2019-03-30T08:13:03.687Z,59.45
2019-03-30T08:14:03.678Z,57.62
2019-03-30T08:15:03.671Z,58.06
2019-03-30T08:16:10.672Z,58.59
2019-03-30T08:17:03.679Z,60.62
2019-03-30T08:18:03.626Z,60.55
2019-03-30T08:19:03.649Z,60.72
2019-03-30T08:20:03.616Z,59.10
2019-03-30T08:21:03.651Z,59.81
2019-03-30T08:22:03.584Z,62.14
2019-03-30T08:23:03.573Z,59.81
2019-03-30T08:24:03.605Z,60.55
2019-03-30T08:25:03.567Z,60.93
2019-03-30T08:26:03.539Z,61.83
2019-03-30T08:27:03.528Z,61.20
2019-03-30T08:28:03.518Z,62.34
2019-03-30T08:29:03.511Z,59.70
2019-03-30T08:30:03.496Z,58.18
2019-03-30T08:31:03.508Z,61.83
2019-03-30T08:32:03.482Z,61.71
2019-03-30T08:33:03.476Z,63.02
2019-03-30T08:34:03.454Z,58.64
2019-03-30T08:35:03.441Z,59.07
2019-03-30T08:36:03.444Z,60.97
2019-03-30T08:37:03.419Z,58.54
2019-03-30T08:38:03.409Z,60.43
2019-03-30T08:39:03.396Z,61.85
2019-03-30T08:40:03.388Z,59.09
2019-03-30T08:41:03.383Z,57.17
2019-03-30T08:42:03.366Z,58.07
2019-03-30T08:43:03.367Z,58.28
2019-03-30T08:44:03.344Z,58.89
2019-03-30T08:45:03.334Z,57.29
2019-03-30T08:46:03.424Z,58.20
2019-03-30T08:47:03.311Z,58.38
2019-03-30T08:48:03.305Z,59.29
2019-03-30T08:49:03.294Z,58.78
2019-03-30T08:50:03.275Z,57.17
2019-03-30T08:51:03.276Z,57.14
2019-03-30T08:52:03.263Z,57.44
2019-03-30T08:53:03.250Z,56.94
2019-03-30T08:54:03.245Z,56.73
2019-03-30T08:55:03.229Z,54.91
2019-03-30T08:56:03.222Z,56.13
2019-03-30T08:57:03.201Z,55.93
2019-03-30T08:58:03.198Z,54.94
2019-03-30T08:59:03.184Z,55.88
2019-03-30T09:00:03.167Z,57.40
2019-03-30T09:01:03.167Z,57.20
2019-03-30T09:02:03.149Z,56.38
2019-03-30T09:03:03.139Z,57.29
2019-03-30T09:04:03.138Z,58.00
2019-03-30T09:05:03.114Z,55.88
2019-03-30T09:06:03.116Z,56.89
2019-03-30T09:07:03.091Z,58.81
2019-03-30T09:08:03.180Z,58.81
2019-03-30T09:09:03.069Z,57.57
2019-03-30T09:10:03.057Z,57.85
2019-03-30T09:11:03.060Z,56.53
2019-03-30T09:12:03.045Z,56.20
2019-03-30T09:13:03.026Z,56.78
2019-03-30T09:14:03.014Z,54.96
2019-03-30T09:15:03.006Z,55.07
2019-03-30T09:16:03.004Z,54.36
2019-03-30T09:17:02.988Z,55.07
2019-03-30T09:18:03.062Z,55.94
2019-03-30T09:19:02.962Z,52.72
2019-03-30T09:20:02.955Z,54.71
2019-03-30T09:21:02.965Z,53.40
2019-03-30T09:22:02.933Z,54.10
2019-03-30T09:23:02.918Z,54.99
2019-03-30T09:24:09.693Z,54.28
2019-03-30T09:25:03.894Z,54.00
2019-03-30T09:26:02.893Z,52.21
2019-03-30T09:27:02.877Z,54.13
2019-03-30T09:28:02.872Z,53.42
2019-03-30T09:29:02.850Z,54.74
2019-03-30T09:30:02.840Z,52.51
2019-03-30T09:31:02.878Z,54.33
2019-03-30T09:32:13.651Z,53.85
2019-03-30T09:33:03.806Z,52.41
2019-03-30T09:34:02.796Z,52.31
2019-03-30T09:35:02.786Z,52.82
2019-03-30T09:36:02.776Z,54.53
2019-03-30T09:37:02.773Z,54.83
2019-03-30T09:38:02.769Z,54.13
2019-03-30T09:39:02.745Z,54.23
2019-03-30T09:40:02.731Z,53.83
2019-03-30T09:41:02.720Z,54.53
2019-03-30T09:42:02.717Z,55.82
2019-03-30T09:43:02.705Z,54.51
2019-03-30T09:44:02.688Z,56.02
2019-03-30T09:45:02.684Z,51.89
2019-03-30T09:46:02.665Z,52.39
2019-03-30T09:47:02.666Z,51.58
2019-03-30T09:48:02.644Z,52.89
2019-03-30T09:49:02.642Z,52.49
2019-03-30T09:50:03.101Z,52.19
2019-03-30T09:51:02.616Z,51.18
2019-03-30T09:52:02.612Z,51.05
2019-03-30T09:53:02.596Z,52.06
2019-03-30T09:54:02.581Z,52.76
2019-03-30T09:55:02.573Z,52.16
2019-03-30T09:56:02.564Z,50.82
2019-03-30T09:57:02.561Z,51.05
2019-03-30T09:58:02.546Z,52.24
2019-03-30T09:59:02.523Z,51.03
2019-03-30T10:00:02.519Z,50.62
2019-03-30T10:01:02.508Z,50.52
2019-03-30T10:02:02.502Z,52.44
2019-03-30T10:03:05.825Z,52.24
2019-03-30T10:04:02.497Z,50.32
2019-03-30T10:05:02.458Z,51.93
2019-03-30T10:06:02.453Z,50.02
2019-03-30T10:07:02.452Z,51.03
2019-03-30T10:08:02.432Z,50.35
2019-03-30T10:09:02.415Z,51.05
2019-03-30T10:10:02.404Z,52.67
2019-03-30T10:11:02.393Z,52.76
2019-03-30T10:12:02.389Z,50.95
2019-03-30T10:13:02.372Z,52.76
2019-03-30T10:14:02.371Z,51.25
2019-03-30T10:15:02.351Z,51.18
2019-03-30T10:16:02.338Z,50.27
2019-03-30T10:17:02.340Z,51.18
2019-03-30T10:18:02.321Z,50.90
2019-03-30T10:19:02.306Z,55.94
2019-03-30T10:20:04.818Z,52.69
2019-03-30T10:21:02.285Z,51.18
2019-03-30T10:22:02.352Z,52.06
2019-03-30T10:23:02.264Z,50.85
2019-03-30T10:24:02.254Z,50.93
2019-03-30T10:25:02.242Z,51.23
2019-03-30T10:26:02.231Z,52.44
2019-03-30T10:27:02.255Z,48.50
2019-03-30T10:28:02.283Z,52.74
2019-03-30T10:29:02.201Z,50.52
2019-03-30T10:30:02.185Z,50.15
2019-03-30T10:31:02.178Z,50.35
2019-03-30T10:32:02.191Z,51.64
2019-03-30T10:33:02.168Z,50.73
2019-03-30T10:34:02.142Z,52.47
2019-03-30T10:35:02.134Z,52.74
2019-03-30T10:36:02.122Z,50.80
2019-03-30T10:37:02.121Z,52.22
2019-03-30T10:38:02.120Z,48.66
2019-03-30T10:39:02.088Z,50.17
2019-03-30T10:40:02.078Z,50.68
2019-03-30T10:41:02.068Z,50.07
2019-03-30T10:42:02.083Z,50.60
2019-03-30T10:43:02.056Z,50.40
2019-03-30T10:44:02.036Z,49.09
2019-03-30T10:45:02.042Z,52.72
2019-03-30T10:46:02.020Z,51.51
2019-03-30T10:47:02.105Z,51.00
2019-03-30T10:48:02.004Z,51.10
2019-03-30T10:49:02.008Z,49.99
2019-03-30T10:50:01.986Z,50.20
2019-03-30T10:51:02.029Z,52.22
2019-03-30T10:52:01.968Z,52.42
2019-03-30T10:53:01.943Z,50.80
2019-03-30T10:54:01.940Z,50.48
2019-03-30T10:55:01.924Z,50.57
2019-03-30T10:56:01.909Z,51.06
2019-03-30T10:57:02.087Z,49.95
2019-03-30T10:58:01.882Z,49.65
2019-03-30T10:59:01.873Z,49.95
2019-03-30T11:00:01.865Z,48.64
2019-03-30T11:01:01.856Z,49.75
2019-03-30T11:02:01.839Z,48.82
2019-03-30T11:03:01.840Z,49.93
2019-03-30T11:04:01.819Z,48.52
2019-03-30T11:05:01.807Z,48.41
2019-03-30T11:06:01.800Z,47.00
2019-03-30T11:07:01.787Z,50.76
2019-03-30T11:08:01.783Z,51.06
2019-03-30T11:09:01.768Z,48.64
2019-03-30T11:10:01.755Z,50.13
2019-03-30T11:11:01.746Z,48.32
2019-03-30T11:12:01.734Z,48.99
2019-03-30T11:13:01.729Z,51.01
2019-03-30T11:14:01.709Z,47.69
2019-03-30T11:15:01.702Z,47.99
2019-03-30T11:16:01.702Z,49.82
2019-03-30T11:17:01.683Z,50.43
2019-03-30T11:18:01.680Z,49.52
2019-03-30T11:19:01.658Z,50.13
2019-03-30T11:20:01.650Z,48.01
2019-03-30T11:21:01.652Z,46.28
2019-03-30T11:22:03.250Z,47.51
2019-03-30T11:23:01.626Z,48.61
2019-03-30T11:24:01.604Z,47.00
2019-03-30T11:25:08.046Z,48.03
2019-03-30T11:26:02.582Z,47.83
2019-03-30T11:27:01.571Z,48.26
2019-03-30T11:28:01.572Z,48.86
2019-03-30T11:29:01.587Z,48.54
2019-03-30T11:30:01.543Z,50.56
2019-03-30T11:31:01.534Z,48.82
2019-03-30T11:32:01.547Z,48.21
2019-03-30T11:33:01.519Z,47.51
2019-03-30T11:34:01.499Z,47.79
2019-03-30T11:35:01.505Z,47.77
2019-03-30T11:36:01.475Z,46.06
2019-03-30T11:37:01.466Z,46.26
2019-03-30T11:38:01.461Z,47.74
2019-03-30T11:39:01.442Z,47.97
2019-03-30T11:40:01.434Z,48.14
2019-03-30T11:41:01.431Z,45.33
2019-03-30T11:42:01.415Z,45.55
2019-03-30T11:43:01.409Z,46.46
2019-03-30T11:44:01.428Z,45.27
2019-03-30T11:45:01.381Z,45.98
2019-03-30T11:46:01.378Z,45.57
2019-03-30T11:47:01.356Z,45.78
2019-03-30T11:48:01.377Z,45.29
2019-03-30T11:49:01.335Z,45.62
2019-03-30T11:50:01.325Z,48.34
2019-03-30T11:51:01.313Z,47.03
2019-03-30T11:52:01.302Z,48.34
2019-03-30T11:53:01.292Z,50.73
2019-03-30T11:54:01.292Z,48.61
2019-03-30T11:55:01.280Z,46.78
2019-03-30T11:56:01.261Z,45.37
2019-03-30T11:57:01.249Z,46.78
2019-03-30T11:58:01.248Z,46.38
2019-03-30T11:59:01.241Z,46.10
2019-03-30T12:00:01.216Z,48.32
2019-03-30T12:01:01.211Z,48.11
2019-03-30T12:02:01.196Z,47.91
2019-03-30T12:03:01.184Z,48.69
2019-03-30T12:04:01.181Z,50.10
2019-03-30T12:05:01.168Z,48.37
2019-03-30T12:06:01.151Z,46.68
2019-03-30T12:07:01.142Z,47.69
2019-03-30T12:08:01.133Z,48.01
2019-03-30T12:09:01.128Z,48.34
2019-03-30T12:10:01.121Z,47.31
2019-03-30T12:11:01.102Z,47.43
2019-03-30T12:12:01.086Z,48.11
2019-03-30T12:13:01.080Z,47.51
2019-03-30T12:14:01.076Z,48.49
2019-03-30T12:15:01.053Z,48.39
2019-03-30T12:16:01.042Z,47.39
2019-03-30T12:17:01.032Z,46.28
2019-03-30T12:18:01.021Z,48.11
2019-03-30T12:19:01.020Z,48.72
2019-03-30T12:20:01.000Z,46.30
2019-03-30T12:21:00.988Z,46.10
2019-03-30T12:22:00.980Z,47.20
2019-03-30T12:23:00.970Z,46.70
2019-03-30T12:24:00.967Z,46.98
2019-03-30T12:25:00.956Z,47.39
2019-03-30T12:26:00.933Z,46.56
2019-03-30T12:27:00.925Z,48.37
2019-03-30T12:28:00.912Z,47.86
2019-03-30T12:29:00.913Z,46.94
2019-03-30T12:30:00.896Z,47.14
2019-03-30T12:31:00.881Z,47.85
2019-03-30T12:32:00.872Z,45.71
2019-03-30T12:33:00.863Z,46.03
2019-03-30T12:34:00.857Z,45.33
2019-03-30T12:35:00.838Z,45.01
2019-03-30T12:36:00.827Z,45.13
2019-03-30T12:37:00.816Z,43.82
2019-03-30T12:38:00.808Z,43.62
2019-03-30T12:39:00.806Z,46.64
2019-03-30T12:40:00.783Z,45.21
2019-03-30T12:41:00.771Z,47.52
2019-03-30T12:42:00.764Z,46.61
2019-03-30T12:43:00.751Z,44.71
2019-03-30T12:44:00.748Z,44.31
2019-03-30T12:45:00.726Z,46.51
2019-03-30T12:46:00.721Z,45.33
2019-03-30T12:47:00.706Z,45.25
2019-03-30T12:48:00.695Z,45.55
2019-03-30T12:49:00.694Z,44.75
2019-03-30T12:50:00.706Z,45.55
2019-03-30T12:51:00.660Z,46.26
2019-03-30T12:52:00.661Z,46.03